sensor_id;sensor_type;location;lat;lon;timestamp;P1;durP1;ratioP1;P2;durP2;ratioP2
60169;SDS011;46042;49.444;6.862;2023-05-10T00:02:00;8.48;;;2.50;;
60169;SDS011;46042;49.444;6.862;2023-05-10T00:04:27;14.20;;;2.65;;
60169;SDS011;46042;49.444;6.862;2023-05-10T00:06:54;4.53;;;3.05;;
60169;SDS011;46042;49.444;6.862;2023-05-10T00:09:21;4.38;;;2.55;;
60169;SDS011;46042;49.444;6.862;2023-05-10T00:11:47;3.95;;;2.60;;
60169;SDS011;46042;49.444;6.862;2023-05-10T00:14:14;5.95;;;3.15;;
60169;SDS011;46042;49.444;6.862;2023-05-10T00:16:40;5.65;;;3.45;;
60169;SDS011;46042;49.444;6.862;2023-05-10T00:19:07;6.75;;;3.20;;
60169;SDS011;46042;49.444;6.862;2023-05-10T00:21:34;15.60;;;3.08;;
60169;SDS011;46042;49.444;6.862;2023-05-10T00:24:01;10.40;;;3.53;;
60169;SDS011;46042;49.444;6.862;2023-05-10T00:26:27;5.18;;;3.15;;
60169;SDS011;46042;49.444;6.862;2023-05-10T00:28:54;6.28;;;3.60;;
60169;SDS011;46042;49.444;6.862;2023-05-10T00:31:21;8.32;;;4.03;;
60169;SDS011;46042;49.444;6.862;2023-05-10T00:33:47;6.07;;;3.60;;
60169;SDS011;46042;49.444;6.862;2023-05-10T00:36:14;5.10;;;3.70;;
60169;SDS011;46042;49.444;6.862;2023-05-10T00:38:41;4.88;;;3.35;;
60169;SDS011;46042;49.444;6.862;2023-05-10T00:41:07;11.57;;;4.47;;
60169;SDS011;46042;49.444;6.862;2023-05-10T00:43:34;6.15;;;3.97;;
60169;SDS011;46042;49.444;6.862;2023-05-10T00:46:01;5.03;;;3.80;;
60169;SDS011;46042;49.444;6.862;2023-05-10T00:48:28;6.35;;;4.38;;
60169;SDS011;46042;49.444;6.862;2023-05-10T00:50:55;5.93;;;4.10;;
60169;SDS011;46042;49.444;6.862;2023-05-10T00:53:22;7.10;;;4.78;;
60169;SDS011;46042;49.444;6.862;2023-05-10T00:55:50;5.93;;;4.10;;
60169;SDS011;46042;49.444;6.862;2023-05-10T00:58:17;9.65;;;4.55;;
60169;SDS011;46042;49.444;6.862;2023-05-10T01:00:44;8.30;;;4.38;;
60169;SDS011;46042;49.444;6.862;2023-05-10T01:03:12;14.18;;;4.50;;
60169;SDS011;46042;49.444;6.862;2023-05-10T01:05:39;8.38;;;4.95;;
60169;SDS011;46042;49.444;6.862;2023-05-10T01:08:06;15.05;;;5.07;;
60169;SDS011;46042;49.444;6.862;2023-05-10T01:10:34;15.32;;;5.32;;
60169;SDS011;46042;49.444;6.862;2023-05-10T01:13:01;8.40;;;4.97;;
60169;SDS011;46042;49.444;6.862;2023-05-10T01:15:29;7.22;;;4.75;;
60169;SDS011;46042;49.444;6.862;2023-05-10T01:17:57;13.48;;;5.68;;
60169;SDS011;46042;49.444;6.862;2023-05-10T01:20:24;7.25;;;5.18;;
60169;SDS011;46042;49.444;6.862;2023-05-10T01:23:09;9.77;;;4.82;;
60169;SDS011;46042;49.444;6.862;2023-05-10T01:25:43;9.13;;;4.90;;
60169;SDS011;46042;49.444;6.862;2023-05-10T01:28:22;9.38;;;4.93;;
60169;SDS011;46042;49.444;6.862;2023-05-10T01:33:55;7.50;;;5.05;;
60169;SDS011;46042;49.444;6.862;2023-05-10T01:36:37;9.40;;;4.90;;
60169;SDS011;46042;49.444;6.862;2023-05-10T01:41:41;8.35;;;5.35;;
60169;SDS011;46042;49.444;6.862;2023-05-10T01:44:35;14.43;;;5.63;;
60169;SDS011;46042;49.444;6.862;2023-05-10T01:47:16;10.55;;;5.50;;
60169;SDS011;46042;49.444;6.862;2023-05-10T01:49:47;8.88;;;5.60;;
60169;SDS011;46042;49.444;6.862;2023-05-10T01:52:19;17.17;;;6.15;;
60169;SDS011;46042;49.444;6.862;2023-05-10T01:54:56;12.52;;;6.10;;
60169;SDS011;46042;49.444;6.862;2023-05-10T01:57:31;9.80;;;6.53;;
60169;SDS011;46042;49.444;6.862;2023-05-10T02:00:03;12.18;;;7.28;;
60169;SDS011;46042;49.444;6.862;2023-05-10T02:02:33;9.60;;;6.50;;
60169;SDS011;46042;49.444;6.862;2023-05-10T02:05:04;19.30;;;6.55;;
60169;SDS011;46042;49.444;6.862;2023-05-10T02:07:33;16.08;;;7.10;;
60169;SDS011;46042;49.444;6.862;2023-05-10T02:10:02;11.75;;;6.80;;
60169;SDS011;46042;49.444;6.862;2023-05-10T02:12:31;12.63;;;7.25;;
60169;SDS011;46042;49.444;6.862;2023-05-10T02:15:02;18.40;;;7.50;;
60169;SDS011;46042;49.444;6.862;2023-05-10T02:17:32;12.00;;;7.50;;
60169;SDS011;46042;49.444;6.862;2023-05-10T02:19:59;10.50;;;7.03;;
60169;SDS011;46042;49.444;6.862;2023-05-10T02:22:30;15.80;;;7.22;;
60169;SDS011;46042;49.444;6.862;2023-05-10T02:24:58;13.68;;;7.20;;
60169;SDS011;46042;49.444;6.862;2023-05-10T02:27:27;13.38;;;7.22;;
60169;SDS011;46042;49.444;6.862;2023-05-10T02:29:55;10.98;;;6.68;;
60169;SDS011;46042;49.444;6.862;2023-05-10T02:32:24;14.48;;;6.72;;
60169;SDS011;46042;49.444;6.862;2023-05-10T02:34:53;11.32;;;6.55;;
60169;SDS011;46042;49.444;6.862;2023-05-10T02:37:21;11.70;;;6.50;;
60169;SDS011;46042;49.444;6.862;2023-05-10T02:39:49;11.15;;;6.32;;
60169;SDS011;46042;49.444;6.862;2023-05-10T02:42:17;12.55;;;6.53;;
60169;SDS011;46042;49.444;6.862;2023-05-10T02:44:47;12.60;;;6.97;;
60169;SDS011;46042;49.444;6.862;2023-05-10T02:47:15;23.08;;;6.90;;
60169;SDS011;46042;49.444;6.862;2023-05-10T02:49:42;13.90;;;7.03;;
60169;SDS011;46042;49.444;6.862;2023-05-10T02:52:09;13.25;;;6.75;;
60169;SDS011;46042;49.444;6.862;2023-05-10T02:54:43;13.75;;;6.53;;
60169;SDS011;46042;49.444;6.862;2023-05-10T02:57:15;14.65;;;6.47;;
60169;SDS011;46042;49.444;6.862;2023-05-10T02:59:45;17.88;;;6.35;;
60169;SDS011;46042;49.444;6.862;2023-05-10T03:02:12;12.20;;;6.05;;
60169;SDS011;46042;49.444;6.862;2023-05-10T03:04:39;10.48;;;5.72;;
60169;SDS011;46042;49.444;6.862;2023-05-10T03:07:06;14.75;;;6.85;;
60169;SDS011;46042;49.444;6.862;2023-05-10T03:09:33;11.13;;;6.45;;
60169;SDS011;46042;49.444;6.862;2023-05-10T03:12:02;8.00;;;5.15;;
60169;SDS011;46042;49.444;6.862;2023-05-10T03:14:53;9.23;;;4.97;;
60169;SDS011;46042;49.444;6.862;2023-05-10T03:17:30;6.95;;;4.40;;
60169;SDS011;46042;49.444;6.862;2023-05-10T03:20:06;8.15;;;4.93;;
60169;SDS011;46042;49.444;6.862;2023-05-10T03:22:38;10.50;;;5.13;;
60169;SDS011;46042;49.444;6.862;2023-05-10T03:25:10;8.30;;;4.65;;
60169;SDS011;46042;49.444;6.862;2023-05-10T03:27:39;7.43;;;4.90;;
60169;SDS011;46042;49.444;6.862;2023-05-10T03:30:08;9.98;;;4.80;;
60169;SDS011;46042;49.444;6.862;2023-05-10T03:32:36;8.35;;;5.10;;
60169;SDS011;46042;49.444;6.862;2023-05-10T03:35:10;9.82;;;5.20;;
60169;SDS011;46042;49.444;6.862;2023-05-10T03:37:39;11.75;;;5.32;;
60169;SDS011;46042;49.444;6.862;2023-05-10T03:40:06;14.20;;;6.22;;
60169;SDS011;46042;49.444;6.862;2023-05-10T03:42:33;11.35;;;5.93;;
60169;SDS011;46042;49.444;6.862;2023-05-10T03:45:00;11.07;;;6.07;;
60169;SDS011;46042;49.444;6.862;2023-05-10T03:47:26;10.07;;;6.03;;
60169;SDS011;46042;49.444;6.862;2023-05-10T03:49:53;9.15;;;5.13;;
60169;SDS011;46042;49.444;6.862;2023-05-10T03:52:19;10.07;;;4.78;;
60169;SDS011;46042;49.444;6.862;2023-05-10T03:54:46;15.45;;;5.38;;
60169;SDS011;46042;49.444;6.862;2023-05-10T03:57:13;13.63;;;5.93;;
60169;SDS011;46042;49.444;6.862;2023-05-10T03:59:39;10.90;;;5.82;;
60169;SDS011;46042;49.444;6.862;2023-05-10T04:02:06;8.68;;;5.13;;
60169;SDS011;46042;49.444;6.862;2023-05-10T04:04:33;9.73;;;5.40;;
60169;SDS011;46042;49.444;6.862;2023-05-10T04:06:59;16.25;;;7.05;;
60169;SDS011;46042;49.444;6.862;2023-05-10T04:09:26;15.02;;;6.05;;
60169;SDS011;46042;49.444;6.862;2023-05-10T04:11:53;9.25;;;5.50;;
60169;SDS011;46042;49.444;6.862;2023-05-10T04:14:19;13.93;;;6.20;;
60169;SDS011;46042;49.444;6.862;2023-05-10T04:16:46;10.30;;;5.95;;
60169;SDS011;46042;49.444;6.862;2023-05-10T04:19:13;10.82;;;5.72;;
60169;SDS011;46042;49.444;6.862;2023-05-10T04:21:40;12.40;;;6.03;;
60169;SDS011;46042;49.444;6.862;2023-05-10T04:24:07;10.85;;;5.63;;
60169;SDS011;46042;49.444;6.862;2023-05-10T04:26:33;11.93;;;5.70;;
60169;SDS011;46042;49.444;6.862;2023-05-10T04:29:00;14.68;;;5.97;;
60169;SDS011;46042;49.444;6.862;2023-05-10T04:31:27;12.45;;;5.00;;
60169;SDS011;46042;49.444;6.862;2023-05-10T04:33:54;9.50;;;5.13;;
60169;SDS011;46042;49.444;6.862;2023-05-10T04:36:21;8.60;;;4.85;;
60169;SDS011;46042;49.444;6.862;2023-05-10T04:38:47;11.25;;;4.63;;
60169;SDS011;46042;49.444;6.862;2023-05-10T04:41:14;10.48;;;4.57;;
60169;SDS011;46042;49.444;6.862;2023-05-10T04:43:41;8.10;;;4.60;;
60169;SDS011;46042;49.444;6.862;2023-05-10T04:46:07;7.25;;;4.35;;
60169;SDS011;46042;49.444;6.862;2023-05-10T04:48:34;7.55;;;4.20;;
60169;SDS011;46042;49.444;6.862;2023-05-10T04:51:01;8.98;;;4.90;;
60169;SDS011;46042;49.444;6.862;2023-05-10T04:53:27;11.38;;;4.80;;
60169;SDS011;46042;49.444;6.862;2023-05-10T04:55:54;7.22;;;4.43;;
60169;SDS011;46042;49.444;6.862;2023-05-10T04:58:21;6.80;;;4.30;;
60169;SDS011;46042;49.444;6.862;2023-05-10T05:00:47;5.68;;;3.60;;
60169;SDS011;46042;49.444;6.862;2023-05-10T05:03:14;10.48;;;4.03;;
60169;SDS011;46042;49.444;6.862;2023-05-10T05:05:41;6.93;;;3.50;;
60169;SDS011;46042;49.444;6.862;2023-05-10T05:08:07;8.43;;;3.28;;
60169;SDS011;46042;49.444;6.862;2023-05-10T05:10:34;9.50;;;3.75;;
60169;SDS011;46042;49.444;6.862;2023-05-10T05:13:01;11.45;;;4.47;;
60169;SDS011;46042;49.444;6.862;2023-05-10T05:15:28;5.20;;;3.20;;
60169;SDS011;46042;49.444;6.862;2023-05-10T05:17:54;7.45;;;3.80;;
60169;SDS011;46042;49.444;6.862;2023-05-10T05:20:21;14.00;;;4.00;;
60169;SDS011;46042;49.444;6.862;2023-05-10T05:22:48;6.65;;;3.83;;
60169;SDS011;46042;49.444;6.862;2023-05-10T05:25:15;7.60;;;4.47;;
60169;SDS011;46042;49.444;6.862;2023-05-10T05:27:42;7.70;;;3.83;;
60169;SDS011;46042;49.444;6.862;2023-05-10T05:30:08;6.00;;;3.90;;
60169;SDS011;46042;49.444;6.862;2023-05-10T05:32:35;11.07;;;4.25;;
60169;SDS011;46042;49.444;6.862;2023-05-10T05:35:02;8.38;;;3.92;;
60169;SDS011;46042;49.444;6.862;2023-05-10T05:37:29;10.88;;;5.13;;
60169;SDS011;46042;49.444;6.862;2023-05-10T05:39:55;13.20;;;3.67;;
60169;SDS011;46042;49.444;6.862;2023-05-10T05:42:22;9.18;;;3.80;;
60169;SDS011;46042;49.444;6.862;2023-05-10T05:44:49;6.90;;;4.28;;
60169;SDS011;46042;49.444;6.862;2023-05-10T05:47:15;7.05;;;4.18;;
60169;SDS011;46042;49.444;6.862;2023-05-10T05:49:42;10.20;;;4.25;;
60169;SDS011;46042;49.444;6.862;2023-05-10T05:52:12;5.97;;;4.00;;
60169;SDS011;46042;49.444;6.862;2023-05-10T05:54:38;11.52;;;3.92;;
60169;SDS011;46042;49.444;6.862;2023-05-10T05:57:05;8.80;;;3.95;;
60169;SDS011;46042;49.444;6.862;2023-05-10T05:59:32;19.75;;;4.43;;
60169;SDS011;46042;49.444;6.862;2023-05-10T06:01:59;7.82;;;4.20;;
60169;SDS011;46042;49.444;6.862;2023-05-10T06:04:27;8.15;;;4.13;;
60169;SDS011;46042;49.444;6.862;2023-05-10T06:06:53;7.80;;;4.35;;
60169;SDS011;46042;49.444;6.862;2023-05-10T06:09:20;9.25;;;4.18;;
60169;SDS011;46042;49.444;6.862;2023-05-10T06:11:47;9.18;;;3.90;;
60169;SDS011;46042;49.444;6.862;2023-05-10T06:14:13;9.10;;;3.50;;
60169;SDS011;46042;49.444;6.862;2023-05-10T06:16:40;8.20;;;3.78;;
60169;SDS011;46042;49.444;6.862;2023-05-10T06:19:07;5.82;;;3.97;;
60169;SDS011;46042;49.444;6.862;2023-05-10T06:21:34;13.07;;;4.00;;
60169;SDS011;46042;49.444;6.862;2023-05-10T06:24:01;7.00;;;3.97;;
60169;SDS011;46042;49.444;6.862;2023-05-10T06:26:28;5.80;;;3.78;;
60169;SDS011;46042;49.444;6.862;2023-05-10T06:28:55;5.95;;;4.10;;
60169;SDS011;46042;49.444;6.862;2023-05-10T06:31:22;8.95;;;3.97;;
60169;SDS011;46042;49.444;6.862;2023-05-10T06:33:48;8.75;;;3.35;;
60169;SDS011;46042;49.444;6.862;2023-05-10T06:36:15;6.28;;;3.30;;
60169;SDS011;46042;49.444;6.862;2023-05-10T06:38:42;5.03;;;2.72;;
60169;SDS011;46042;49.444;6.862;2023-05-10T06:41:08;7.03;;;2.75;;
60169;SDS011;46042;49.444;6.862;2023-05-10T06:43:35;3.83;;;2.33;;
60169;SDS011;46042;49.444;6.862;2023-05-10T06:46:03;4.30;;;2.70;;
60169;SDS011;46042;49.444;6.862;2023-05-10T06:48:29;10.15;;;2.40;;
60169;SDS011;46042;49.444;6.862;2023-05-10T06:50:56;4.78;;;2.17;;
60169;SDS011;46042;49.444;6.862;2023-05-10T06:53:23;6.07;;;2.20;;
60169;SDS011;46042;49.444;6.862;2023-05-10T06:55:49;2.92;;;2.20;;
60169;SDS011;46042;49.444;6.862;2023-05-10T06:58:16;5.03;;;2.80;;
60169;SDS011;46042;49.444;6.862;2023-05-10T07:00:43;3.75;;;2.60;;
60169;SDS011;46042;49.444;6.862;2023-05-10T07:03:11;3.35;;;2.20;;
60169;SDS011;46042;49.444;6.862;2023-05-10T07:05:38;3.30;;;2.00;;
60169;SDS011;46042;49.444;6.862;2023-05-10T07:08:05;3.92;;;2.67;;
60169;SDS011;46042;49.444;6.862;2023-05-10T07:10:32;3.70;;;2.33;;
60169;SDS011;46042;49.444;6.862;2023-05-10T07:12:59;2.72;;;2.10;;
60169;SDS011;46042;49.444;6.862;2023-05-10T07:15:26;2.75;;;2.10;;
60169;SDS011;46042;49.444;6.862;2023-05-10T07:17:53;4.28;;;2.80;;
60169;SDS011;46042;49.444;6.862;2023-05-10T07:20:20;6.70;;;3.10;;
60169;SDS011;46042;49.444;6.862;2023-05-10T07:22:47;15.88;;;3.42;;
60169;SDS011;46042;49.444;6.862;2023-05-10T07:25:13;4.63;;;2.90;;
60169;SDS011;46042;49.444;6.862;2023-05-10T07:27:40;5.00;;;2.83;;
60169;SDS011;46042;49.444;6.862;2023-05-10T07:30:07;7.63;;;2.78;;
60169;SDS011;46042;49.444;6.862;2023-05-10T07:32:34;5.00;;;2.60;;
60169;SDS011;46042;49.444;6.862;2023-05-10T07:35:01;5.90;;;3.00;;
60169;SDS011;46042;49.444;6.862;2023-05-10T07:37:28;5.88;;;3.70;;
60169;SDS011;46042;49.444;6.862;2023-05-10T07:39:55;10.77;;;3.03;;
60169;SDS011;46042;49.444;6.862;2023-05-10T07:42:22;5.82;;;2.72;;
60169;SDS011;46042;49.444;6.862;2023-05-10T07:44:49;4.13;;;2.58;;
60169;SDS011;46042;49.444;6.862;2023-05-10T07:47:15;5.95;;;2.60;;
60169;SDS011;46042;49.444;6.862;2023-05-10T07:49:43;6.07;;;2.20;;
60169;SDS011;46042;49.444;6.862;2023-05-10T07:52:11;4.75;;;2.55;;
60169;SDS011;46042;49.444;6.862;2023-05-10T07:54:37;3.10;;;2.33;;
60169;SDS011;46042;49.444;6.862;2023-05-10T07:57:04;6.28;;;2.30;;
60169;SDS011;46042;49.444;6.862;2023-05-10T07:59:31;7.97;;;2.63;;
60169;SDS011;46042;49.444;6.862;2023-05-10T08:01:58;3.35;;;2.38;;
60169;SDS011;46042;49.444;6.862;2023-05-10T08:04:25;5.10;;;2.38;;
60169;SDS011;46042;49.444;6.862;2023-05-10T08:06:53;3.33;;;2.38;;
60169;SDS011;46042;49.444;6.862;2023-05-10T08:09:22;5.88;;;2.67;;
60169;SDS011;46042;49.444;6.862;2023-05-10T08:11:50;3.63;;;2.45;;
60169;SDS011;46042;49.444;6.862;2023-05-10T08:14:17;6.68;;;2.78;;
60169;SDS011;46042;49.444;6.862;2023-05-10T08:16:44;7.90;;;2.85;;
60169;SDS011;46042;49.444;6.862;2023-05-10T08:19:11;8.65;;;2.85;;
60169;SDS011;46042;49.444;6.862;2023-05-10T08:21:37;10.65;;;3.20;;
60169;SDS011;46042;49.444;6.862;2023-05-10T08:24:04;7.93;;;2.92;;
60169;SDS011;46042;49.444;6.862;2023-05-10T08:26:32;5.60;;;2.47;;
60169;SDS011;46042;49.444;6.862;2023-05-10T08:29:04;7.38;;;2.53;;
60169;SDS011;46042;49.444;6.862;2023-05-10T08:31:41;10.10;;;2.70;;
60169;SDS011;46042;49.444;6.862;2023-05-10T08:34:09;10.32;;;2.75;;
60169;SDS011;46042;49.444;6.862;2023-05-10T08:36:36;7.13;;;3.00;;
60169;SDS011;46042;49.444;6.862;2023-05-10T08:39:06;11.38;;;2.55;;
60169;SDS011;46042;49.444;6.862;2023-05-10T08:41:44;5.72;;;2.47;;
60169;SDS011;46042;49.444;6.862;2023-05-10T08:44:17;9.73;;;2.53;;
60169;SDS011;46042;49.444;6.862;2023-05-10T08:46:46;11.98;;;2.72;;
60169;SDS011;46042;49.444;6.862;2023-05-10T08:49:20;11.98;;;3.55;;
60169;SDS011;46042;49.444;6.862;2023-05-10T08:51:49;13.65;;;2.90;;
60169;SDS011;46042;49.444;6.862;2023-05-10T08:54:18;8.15;;;2.85;;
60169;SDS011;46042;49.444;6.862;2023-05-10T08:56:46;7.18;;;3.22;;
60169;SDS011;46042;49.444;6.862;2023-05-10T08:59:15;5.20;;;2.45;;
60169;SDS011;46042;49.444;6.862;2023-05-10T09:01:42;9.23;;;2.60;;
60169;SDS011;46042;49.444;6.862;2023-05-10T09:04:11;5.72;;;2.58;;
60169;SDS011;46042;49.444;6.862;2023-05-10T09:06:38;6.47;;;2.83;;
60169;SDS011;46042;49.444;6.862;2023-05-10T09:09:05;9.85;;;3.40;;
60169;SDS011;46042;49.444;6.862;2023-05-10T09:11:32;11.55;;;2.60;;
60169;SDS011;46042;49.444;6.862;2023-05-10T09:13:59;5.90;;;2.83;;
60169;SDS011;46042;49.444;6.862;2023-05-10T09:16:26;5.30;;;2.30;;
60169;SDS011;46042;49.444;6.862;2023-05-10T09:18:52;5.75;;;2.28;;
60169;SDS011;46042;49.444;6.862;2023-05-10T09:21:19;7.43;;;3.40;;
60169;SDS011;46042;49.444;6.862;2023-05-10T09:23:46;8.60;;;2.88;;
60169;SDS011;46042;49.444;6.862;2023-05-10T09:26:16;7.80;;;2.58;;
60169;SDS011;46042;49.444;6.862;2023-05-10T09:28:53;10.10;;;2.45;;
60169;SDS011;46042;49.444;6.862;2023-05-10T09:31:21;9.40;;;2.55;;
60169;SDS011;46042;49.444;6.862;2023-05-10T09:33:50;5.80;;;2.58;;
60169;SDS011;46042;49.444;6.862;2023-05-10T09:36:18;6.50;;;2.15;;
60169;SDS011;46042;49.444;6.862;2023-05-10T09:38:49;10.65;;;2.33;;
60169;SDS011;46042;49.444;6.862;2023-05-10T09:41:18;5.97;;;2.50;;
60169;SDS011;46042;49.444;6.862;2023-05-10T09:43:47;8.13;;;2.30;;
60169;SDS011;46042;49.444;6.862;2023-05-10T09:46:14;9.30;;;2.53;;
60169;SDS011;46042;49.444;6.862;2023-05-10T09:48:42;5.28;;;2.30;;
60169;SDS011;46042;49.444;6.862;2023-05-10T09:51:24;7.70;;;2.40;;
60169;SDS011;46042;49.444;6.862;2023-05-10T09:56:37;6.63;;;2.30;;
60169;SDS011;46042;49.444;6.862;2023-05-10T09:59:07;16.27;;;2.65;;
60169;SDS011;46042;49.444;6.862;2023-05-10T10:01:37;6.33;;;2.17;;
60169;SDS011;46042;49.444;6.862;2023-05-10T10:04:04;7.68;;;2.13;;
60169;SDS011;46042;49.444;6.862;2023-05-10T10:06:38;8.95;;;2.03;;
60169;SDS011;46042;49.444;6.862;2023-05-10T10:09:06;5.10;;;2.10;;
60169;SDS011;46042;49.444;6.862;2023-05-10T10:11:34;7.65;;;2.15;;
60169;SDS011;46042;49.444;6.862;2023-05-10T10:14:02;7.97;;;2.10;;
60169;SDS011;46042;49.444;6.862;2023-05-10T10:16:29;11.68;;;2.55;;
60169;SDS011;46042;49.444;6.862;2023-05-10T10:18:57;9.25;;;2.58;;
60169;SDS011;46042;49.444;6.862;2023-05-10T10:21:24;10.38;;;2.40;;
60169;SDS011;46042;49.444;6.862;2023-05-10T10:23:51;5.40;;;1.95;;
60169;SDS011;46042;49.444;6.862;2023-05-10T10:26:19;8.25;;;3.55;;
60169;SDS011;46042;49.444;6.862;2023-05-10T10:32:26;5.25;;;2.08;;
60169;SDS011;46042;49.444;6.862;2023-05-10T10:34:39;6.53;;;2.17;;
60169;SDS011;46042;49.444;6.862;2023-05-10T10:37:06;4.35;;;2.13;;
60169;SDS011;46042;49.444;6.862;2023-05-10T10:39:33;5.28;;;2.10;;
60169;SDS011;46042;49.444;6.862;2023-05-10T10:42:03;8.80;;;2.25;;
60169;SDS011;46042;49.444;6.862;2023-05-10T10:49:42;7.20;;;1.90;;
60169;SDS011;46042;49.444;6.862;2023-05-10T10:52:34;4.97;;;2.17;;
60169;SDS011;46042;49.444;6.862;2023-05-10T10:55:17;4.90;;;1.80;;
60169;SDS011;46042;49.444;6.862;2023-05-10T10:57:46;8.93;;;2.00;;
60169;SDS011;46042;49.444;6.862;2023-05-10T11:07:54;3.67;;;1.65;;
60169;SDS011;46042;49.444;6.862;2023-05-10T11:10:22;6.40;;;1.90;;
60169;SDS011;46042;49.444;6.862;2023-05-10T11:12:51;6.65;;;1.60;;
60169;SDS011;46042;49.444;6.862;2023-05-10T11:15:39;5.85;;;1.95;;
60169;SDS011;46042;49.444;6.862;2023-05-10T11:18:23;7.22;;;2.33;;
60169;SDS011;46042;49.444;6.862;2023-05-10T11:20:51;16.42;;;1.88;;
60169;SDS011;46042;49.444;6.862;2023-05-10T11:23:29;2.80;;;1.60;;
60169;SDS011;46042;49.444;6.862;2023-05-10T11:25:58;3.63;;;1.48;;
60169;SDS011;46042;49.444;6.862;2023-05-10T11:28:26;6.10;;;1.58;;
60169;SDS011;46042;49.444;6.862;2023-05-10T11:30:54;6.13;;;1.88;;
60169;SDS011;46042;49.444;6.862;2023-05-10T11:33:21;16.55;;;3.80;;
60169;SDS011;46042;49.444;6.862;2023-05-10T11:35:47;2.20;;;1.50;;
60169;SDS011;46042;49.444;6.862;2023-05-10T11:38:14;5.13;;;1.77;;
60169;SDS011;46042;49.444;6.862;2023-05-10T11:40:41;6.72;;;2.08;;
60169;SDS011;46042;49.444;6.862;2023-05-10T11:43:09;5.32;;;1.88;;
60169;SDS011;46042;49.444;6.862;2023-05-10T11:45:37;2.63;;;1.58;;
60169;SDS011;46042;49.444;6.862;2023-05-10T11:48:04;2.40;;;1.48;;
60169;SDS011;46042;49.444;6.862;2023-05-10T11:50:31;5.80;;;1.50;;
60169;SDS011;46042;49.444;6.862;2023-05-10T11:52:58;11.05;;;1.77;;
60169;SDS011;46042;49.444;6.862;2023-05-10T11:55:25;2.60;;;1.42;;
60169;SDS011;46042;49.444;6.862;2023-05-10T11:57:59;3.97;;;1.33;;
60169;SDS011;46042;49.444;6.862;2023-05-10T12:00:27;3.78;;;1.80;;
60169;SDS011;46042;49.444;6.862;2023-05-10T12:02:54;5.03;;;1.48;;
60169;SDS011;46042;49.444;6.862;2023-05-10T12:05:21;1.75;;;1.35;;
60169;SDS011;46042;49.444;6.862;2023-05-10T12:07:48;5.72;;;1.55;;
60169;SDS011;46042;49.444;6.862;2023-05-10T12:10:15;4.13;;;1.40;;
60169;SDS011;46042;49.444;6.862;2023-05-10T12:12:45;6.88;;;1.60;;
60169;SDS011;46042;49.444;6.862;2023-05-10T12:15:24;5.57;;;1.35;;
60169;SDS011;46042;49.444;6.862;2023-05-10T12:17:51;5.05;;;1.38;;
60169;SDS011;46042;49.444;6.862;2023-05-10T12:20:20;2.78;;;1.40;;
60169;SDS011;46042;49.444;6.862;2023-05-10T12:22:51;2.13;;;1.63;;
60169;SDS011;46042;49.444;6.862;2023-05-10T12:25:21;4.15;;;1.48;;
60169;SDS011;46042;49.444;6.862;2023-05-10T12:27:56;3.22;;;1.30;;
60169;SDS011;46042;49.444;6.862;2023-05-10T12:30:24;4.72;;;1.50;;
60169;SDS011;46042;49.444;6.862;2023-05-10T12:32:53;4.22;;;1.33;;
60169;SDS011;46042;49.444;6.862;2023-05-10T12:35:25;3.63;;;1.45;;
60169;SDS011;46042;49.444;6.862;2023-05-10T12:37:52;5.05;;;1.20;;
60169;SDS011;46042;49.444;6.862;2023-05-10T12:40:18;2.20;;;1.10;;
60169;SDS011;46042;49.444;6.862;2023-05-10T12:42:45;6.55;;;1.50;;
60169;SDS011;46042;49.444;6.862;2023-05-10T12:45:13;3.97;;;1.30;;
60169;SDS011;46042;49.444;6.862;2023-05-10T12:47:39;1.33;;;1.23;;
60169;SDS011;46042;49.444;6.862;2023-05-10T12:50:09;5.47;;;1.70;;
60169;SDS011;46042;49.444;6.862;2023-05-10T12:52:36;4.90;;;1.63;;
60169;SDS011;46042;49.444;6.862;2023-05-10T12:55:03;2.55;;;1.48;;
60169;SDS011;46042;49.444;6.862;2023-05-10T12:57:30;2.22;;;1.45;;
60169;SDS011;46042;49.444;6.862;2023-05-10T12:59:57;2.53;;;1.40;;
60169;SDS011;46042;49.444;6.862;2023-05-10T13:02:23;2.33;;;1.40;;
60169;SDS011;46042;49.444;6.862;2023-05-10T13:04:50;1.95;;;1.35;;
60169;SDS011;46042;49.444;6.862;2023-05-10T13:07:17;3.17;;;1.25;;
60169;SDS011;46042;49.444;6.862;2023-05-10T13:09:44;2.97;;;1.48;;
60169;SDS011;46042;49.444;6.862;2023-05-10T13:12:10;4.35;;;1.80;;
60169;SDS011;46042;49.444;6.862;2023-05-10T13:14:37;4.60;;;1.42;;
60169;SDS011;46042;49.444;6.862;2023-05-10T13:17:04;1.98;;;1.38;;
60169;SDS011;46042;49.444;6.862;2023-05-10T13:19:31;4.63;;;1.60;;
60169;SDS011;46042;49.444;6.862;2023-05-10T13:21:57;3.55;;;1.30;;
60169;SDS011;46042;49.444;6.862;2023-05-10T13:24:24;1.83;;;1.30;;
60169;SDS011;46042;49.444;6.862;2023-05-10T13:26:51;4.07;;;1.40;;
60169;SDS011;46042;49.444;6.862;2023-05-10T13:29:17;4.38;;;1.30;;
60169;SDS011;46042;49.444;6.862;2023-05-10T13:31:45;2.85;;;1.42;;
60169;SDS011;46042;49.444;6.862;2023-05-10T13:34:12;1.70;;;1.25;;
60169;SDS011;46042;49.444;6.862;2023-05-10T13:36:38;4.65;;;1.35;;
60169;SDS011;46042;49.444;6.862;2023-05-10T13:39:05;1.10;;;1.10;;
60169;SDS011;46042;49.444;6.862;2023-05-10T13:41:32;5.85;;;1.48;;
60169;SDS011;46042;49.444;6.862;2023-05-10T13:43:59;3.20;;;1.40;;
60169;SDS011;46042;49.444;6.862;2023-05-10T13:46:26;2.85;;;1.70;;
60169;SDS011;46042;49.444;6.862;2023-05-10T13:48:52;6.25;;;1.60;;
60169;SDS011;46042;49.444;6.862;2023-05-10T13:51:19;2.58;;;1.38;;
60169;SDS011;46042;49.444;6.862;2023-05-10T13:53:46;3.20;;;1.50;;
60169;SDS011;46042;49.444;6.862;2023-05-10T13:56:13;1.30;;;1.17;;
60169;SDS011;46042;49.444;6.862;2023-05-10T13:58:40;4.18;;;1.67;;
60169;SDS011;46042;49.444;6.862;2023-05-10T14:01:07;7.03;;;1.73;;
60169;SDS011;46042;49.444;6.862;2023-05-10T14:03:35;1.42;;;1.17;;
60169;SDS011;46042;49.444;6.862;2023-05-10T14:06:04;2.13;;;1.15;;
60169;SDS011;46042;49.444;6.862;2023-05-10T14:08:31;2.95;;;1.38;;
60169;SDS011;46042;49.444;6.862;2023-05-10T14:10:57;4.25;;;1.40;;
60169;SDS011;46042;49.444;6.862;2023-05-10T14:13:24;1.40;;;1.30;;
60169;SDS011;46042;49.444;6.862;2023-05-10T14:15:52;3.78;;;1.30;;
60169;SDS011;46042;49.444;6.862;2023-05-10T14:18:19;1.83;;;1.30;;
60169;SDS011;46042;49.444;6.862;2023-05-10T14:20:46;2.40;;;1.30;;
60169;SDS011;46042;49.444;6.862;2023-05-10T14:23:13;1.83;;;1.15;;
60169;SDS011;46042;49.444;6.862;2023-05-10T14:25:40;1.67;;;1.27;;
60169;SDS011;46042;49.444;6.862;2023-05-10T14:28:06;4.10;;;1.30;;
60169;SDS011;46042;49.444;6.862;2023-05-10T14:30:33;4.47;;;1.33;;
60169;SDS011;46042;49.444;6.862;2023-05-10T14:33:01;5.75;;;1.40;;
60169;SDS011;46042;49.444;6.862;2023-05-10T14:35:29;2.33;;;1.35;;
60169;SDS011;46042;49.444;6.862;2023-05-10T14:37:57;3.25;;;1.63;;
60169;SDS011;46042;49.444;6.862;2023-05-10T14:40:24;5.22;;;1.27;;
60169;SDS011;46042;49.444;6.862;2023-05-10T14:42:52;3.05;;;1.50;;
60169;SDS011;46042;49.444;6.862;2023-05-10T14:45:19;2.35;;;1.13;;
60169;SDS011;46042;49.444;6.862;2023-05-10T14:47:47;2.85;;;1.23;;
60169;SDS011;46042;49.444;6.862;2023-05-10T14:50:14;3.40;;;1.40;;
60169;SDS011;46042;49.444;6.862;2023-05-10T14:53:00;4.10;;;1.25;;
60169;SDS011;46042;49.444;6.862;2023-05-10T14:55:26;5.85;;;1.40;;
60169;SDS011;46042;49.444;6.862;2023-05-10T14:57:53;2.05;;;1.08;;
60169;SDS011;46042;49.444;6.862;2023-05-10T15:00:20;2.15;;;1.60;;
60169;SDS011;46042;49.444;6.862;2023-05-10T15:02:47;2.53;;;1.30;;
60169;SDS011;46042;49.444;6.862;2023-05-10T15:05:15;2.90;;;1.40;;
60169;SDS011;46042;49.444;6.862;2023-05-10T15:07:44;1.88;;;1.33;;
60169;SDS011;46042;49.444;6.862;2023-05-10T15:10:11;4.15;;;1.50;;
60169;SDS011;46042;49.444;6.862;2023-05-10T15:12:38;3.03;;;1.20;;
60169;SDS011;46042;49.444;6.862;2023-05-10T15:15:05;1.38;;;1.27;;